sensor_id;sensor_type;location;lat;lon;timestamp;pressure;altitude;pressure_sealevel;temperature;humidity
84116;BME280;74211;52.234;9.860;2024-03-02T00:02:26;99761.19;;;8.87;75.60
84116;BME280;74211;52.234;9.860;2024-03-02T00:04:56;99767.38;;;8.86;76.04
84116;BME280;74211;52.234;9.860;2024-03-02T00:07:26;99762.16;;;8.79;76.17
84116;BME280;74211;52.234;9.860;2024-03-02T00:09:56;99759.75;;;8.78;76.62
84116;BME280;74211;52.234;9.860;2024-03-02T00:12:29;99759.34;;;8.74;76.67
84116;BME280;74211;52.234;9.860;2024-03-02T00:14:59;99757.97;;;8.72;76.82
84116;BME280;74211;52.234;9.860;2024-03-02T00:17:30;99759.75;;;8.78;76.37
84116;BME280;74211;52.234;9.860;2024-03-02T00:20:00;99763.34;;;8.77;76.31
84116;BME280;74211;52.234;9.860;2024-03-02T00:22:30;99762.56;;;8.76;76.62
84116;BME280;74211;52.234;9.860;2024-03-02T00:25:00;99764.97;;;8.78;77.00
84116;BME280;74211;52.234;9.860;2024-03-02T00:27:33;99765.34;;;8.75;76.69
84116;BME280;74211;52.234;9.860;2024-03-02T00:30:06;99759.97;;;8.70;76.94
84116;BME280;74211;52.234;9.860;2024-03-02T00:32:49;99767.34;;;8.73;76.96
84116;BME280;74211;52.234;9.860;2024-03-02T00:35:21;99768.94;;;8.74;77.27
84116;BME280;74211;52.234;9.860;2024-03-02T00:37:53;99769.38;;;8.71;77.27
84116;BME280;74211;52.234;9.860;2024-03-02T00:40:27;99758.75;;;8.59;77.73
84116;BME280;74211;52.234;9.860;2024-03-02T00:43:02;99771.75;;;8.65;77.50
84116;BME280;74211;52.234;9.860;2024-03-02T00:45:33;99776.34;;;8.63;77.58
84116;BME280;74211;52.234;9.860;2024-03-02T00:48:04;99772.94;;;8.56;77.67
84116;BME280;74211;52.234;9.860;2024-03-02T00:50:34;99768.16;;;8.53;78.23
84116;BME280;74211;52.234;9.860;2024-03-02T00:53:04;99770.34;;;8.56;77.80
84116;BME280;74211;52.234;9.860;2024-03-02T00:55:36;99766.34;;;8.47;77.76
84116;BME280;74211;52.234;9.860;2024-03-02T00:58:13;99776.34;;;8.50;77.67
84116;BME280;74211;52.234;9.860;2024-03-02T01:00:43;99778.53;;;8.60;77.79
84116;BME280;74211;52.234;9.860;2024-03-02T01:03:14;99781.75;;;8.62;77.35
84116;BME280;74211;52.234;9.860;2024-03-02T01:05:45;99777.75;;;8.59;77.91
84116;BME280;74211;52.234;9.860;2024-03-02T01:08:15;99779.53;;;8.59;78.51
84116;BME280;74211;52.234;9.860;2024-03-02T01:10:45;99783.53;;;8.61;77.67
84116;BME280;74211;52.234;9.860;2024-03-02T01:13:18;99788.53;;;8.56;78.39
84116;BME280;74211;52.234;9.860;2024-03-02T01:15:48;99782.16;;;8.52;78.54
84116;BME280;74211;52.234;9.860;2024-03-02T01:18:18;99777.34;;;8.49;78.59
84116;BME280;74211;52.234;9.860;2024-03-02T01:20:49;99778.72;;;8.45;78.21
84116;BME280;74211;52.234;9.860;2024-03-02T01:23:22;99791.75;;;8.52;78.51
84116;BME280;74211;52.234;9.860;2024-03-02T01:25:54;99793.72;;;8.50;78.66
84116;BME280;74211;52.234;9.860;2024-03-02T01:28:26;99796.13;;;8.51;78.53
84116;BME280;74211;52.234;9.860;2024-03-02T01:30:57;99787.72;;;8.49;78.42
84116;BME280;74211;52.234;9.860;2024-03-02T01:33:30;99787.13;;;8.54;78.70
84116;BME280;74211;52.234;9.860;2024-03-02T01:36:00;99764.31;;;8.43;78.17
84116;BME280;74211;52.234;9.860;2024-03-02T01:38:30;99783.94;;;8.52;78.15
84116;BME280;74211;52.234;9.860;2024-03-02T01:41:00;99778.94;;;8.50;78.47
84116;BME280;74211;52.234;9.860;2024-03-02T01:43:33;99788.91;;;8.47;78.93
84116;BME280;74211;52.234;9.860;2024-03-02T01:46:07;99781.34;;;8.52;78.56
84116;BME280;74211;52.234;9.860;2024-03-02T01:48:37;99777.91;;;8.45;78.84
84116;BME280;74211;52.234;9.860;2024-03-02T01:51:07;99781.09;;;8.40;79.35
84116;BME280;74211;52.234;9.860;2024-03-02T01:53:37;99784.50;;;8.41;79.13
84116;BME280;74211;52.234;9.860;2024-03-02T01:56:08;99772.31;;;8.41;79.24
84116;BME280;74211;52.234;9.860;2024-03-02T01:58:40;99770.91;;;8.39;79.07
84116;BME280;74211;52.234;9.860;2024-03-02T02:01:11;99766.13;;;8.42;78.75
84116;BME280;74211;52.234;9.860;2024-03-02T02:03:42;99770.09;;;8.38;78.88
84116;BME280;74211;52.234;9.860;2024-03-02T02:06:13;99764.50;;;8.41;78.60
84116;BME280;74211;52.234;9.860;2024-03-02T02:08:43;99758.72;;;8.32;79.10
84116;BME280;74211;52.234;9.860;2024-03-02T02:11:14;99764.91;;;8.38;78.87
84116;BME280;74211;52.234;9.860;2024-03-02T02:13:47;99756.31;;;8.38;78.70
84116;BME280;74211;52.234;9.860;2024-03-02T02:16:17;99752.09;;;8.37;78.17
84116;BME280;74211;52.234;9.860;2024-03-02T02:18:48;99750.72;;;8.41;78.06
84116;BME280;74211;52.234;9.860;2024-03-02T02:21:24;99751.53;;;8.41;77.79
84116;BME280;74211;52.234;9.860;2024-03-02T02:23:55;99748.94;;;8.48;77.84
84116;BME280;74211;52.234;9.860;2024-03-02T02:26:25;99743.34;;;8.44;77.09
84116;BME280;74211;52.234;9.860;2024-03-02T02:28:56;99744.13;;;8.38;77.57
84116;BME280;74211;52.234;9.860;2024-03-02T02:31:25;99742.13;;;8.40;77.74
84116;BME280;74211;52.234;9.860;2024-03-02T02:33:56;99731.50;;;8.35;78.02
84116;BME280;74211;52.234;9.860;2024-03-02T02:36:28;99742.31;;;8.32;78.28
84116;BME280;74211;52.234;9.860;2024-03-02T02:39:00;99742.13;;;8.33;78.02
84116;BME280;74211;52.234;9.860;2024-03-02T02:41:32;99741.69;;;8.30;78.13
84116;BME280;74211;52.234;9.860;2024-03-02T02:44:02;99736.50;;;8.30;77.81
84116;BME280;74211;52.234;9.860;2024-03-02T02:46:31;99747.69;;;8.30;77.79
84116;BME280;74211;52.234;9.860;2024-03-02T02:49:02;99739.72;;;8.32;77.98
84116;BME280;74211;52.234;9.860;2024-03-02T02:51:34;99734.09;;;8.35;77.89
84116;BME280;74211;52.234;9.860;2024-03-02T02:54:04;99736.50;;;8.30;78.09
84116;BME280;74211;52.234;9.860;2024-03-02T02:56:34;99733.28;;;8.28;78.55
84116;BME280;74211;52.234;9.860;2024-03-02T02:59:04;99730.47;;;8.23;78.72
84116;BME280;74211;52.234;9.860;2024-03-02T03:01:34;99727.69;;;8.31;77.99
84116;BME280;74211;52.234;9.860;2024-03-02T03:04:04;99725.31;;;8.36;77.49
84116;BME280;74211;52.234;9.860;2024-03-02T03:06:37;99730.94;;;8.33;78.16
84116;BME280;74211;52.234;9.860;2024-03-02T03:09:07;99728.91;;;8.35;77.88
84116;BME280;74211;52.234;9.860;2024-03-02T03:11:38;99718.88;;;8.25;77.69
84116;BME280;74211;52.234;9.860;2024-03-02T03:14:08;99728.69;;;8.30;78.19
84116;BME280;74211;52.234;9.860;2024-03-02T03:16:39;99724.28;;;8.24;77.88
84116;BME280;74211;52.234;9.860;2024-03-02T03:19:09;99730.84;;;8.20;78.26
84116;BME280;74211;52.234;9.860;2024-03-02T03:21:43;99723.63;;;8.09;79.13
84116;BME280;74211;52.234;9.860;2024-03-02T03:24:13;99719.41;;;8.01;79.57
84116;BME280;74211;52.234;9.860;2024-03-02T03:26:44;99734.19;;;7.94;79.48
84116;BME280;74211;52.234;9.860;2024-03-02T03:29:14;99704.56;;;7.75;79.65
84116;BME280;74211;52.234;9.860;2024-03-02T03:31:44;99728.78;;;7.89;79.14
84116;BME280;74211;52.234;9.860;2024-03-02T03:34:14;99726.94;;;7.83;79.40
84116;BME280;74211;52.234;9.860;2024-03-02T03:36:46;99720.28;;;7.67;79.74
84116;BME280;74211;52.234;9.860;2024-03-02T03:39:16;99720.47;;;7.59;79.93
84116;BME280;74211;52.234;9.860;2024-03-02T03:41:47;99724.44;;;7.61;79.74
84116;BME280;74211;52.234;9.860;2024-03-02T03:44:17;99711.47;;;7.55;80.17
84116;BME280;74211;52.234;9.860;2024-03-02T03:46:47;99709.03;;;7.47;80.63
84116;BME280;74211;52.234;9.860;2024-03-02T03:49:17;99704.16;;;7.30;80.90
84116;BME280;74211;52.234;9.860;2024-03-02T03:51:50;99713.69;;;7.23;81.62
84116;BME280;74211;52.234;9.860;2024-03-02T03:54:20;99712.22;;;7.14;81.67
84116;BME280;74211;52.234;9.860;2024-03-02T03:56:50;99714.22;;;7.12;81.81
84116;BME280;74211;52.234;9.860;2024-03-02T03:59:20;99716.00;;;7.12;81.75
84116;BME280;74211;52.234;9.860;2024-03-02T04:01:51;99713.34;;;7.05;81.94
84116;BME280;74211;52.234;9.860;2024-03-02T04:04:21;99710.31;;;6.95;82.24
84116;BME280;74211;52.234;9.860;2024-03-02T04:06:53;99708.09;;;6.92;82.49
84116;BME280;74211;52.234;9.860;2024-03-02T04:09:23;99712.91;;;6.95;82.51
84116;BME280;74211;52.234;9.860;2024-03-02T04:11:53;99717.91;;;6.97;81.74
84116;BME280;74211;52.234;9.860;2024-03-02T04:14:23;99713.09;;;6.93;82.29
84116;BME280;74211;52.234;9.860;2024-03-02T04:16:53;99711.66;;;6.91;82.21
84116;BME280;74211;52.234;9.860;2024-03-02T04:19:23;99700.84;;;6.81;82.42
84116;BME280;74211;52.234;9.860;2024-03-02T04:21:55;99714.97;;;6.78;82.76
84116;BME280;74211;52.234;9.860;2024-03-02T04:24:34;99714.16;;;6.78;82.80
84116;BME280;74211;52.234;9.860;2024-03-02T04:27:04;99720.72;;;6.74;82.77
84116;BME280;74211;52.234;9.860;2024-03-02T04:29:34;99717.88;;;6.69;82.85
84116;BME280;74211;52.234;9.860;2024-03-02T04:32:05;99718.31;;;6.72;83.41
84116;BME280;74211;52.234;9.860;2024-03-02T04:34:35;99725.06;;;6.67;83.47
84116;BME280;74211;52.234;9.860;2024-03-02T04:37:08;99711.41;;;6.58;83.44
84116;BME280;74211;52.234;9.860;2024-03-02T04:39:39;99713.53;;;6.48;84.20
84116;BME280;74211;52.234;9.860;2024-03-02T04:42:09;99718.09;;;6.46;84.21
84116;BME280;74211;52.234;9.860;2024-03-02T04:44:39;99693.34;;;6.22;84.04
84116;BME280;74211;52.234;9.860;2024-03-02T04:47:09;99711.38;;;6.30;84.62
84116;BME280;74211;52.234;9.860;2024-03-02T04:49:39;99690.69;;;6.15;85.02
84116;BME280;74211;52.234;9.860;2024-03-02T04:52:13;99704.16;;;6.25;85.38
84116;BME280;74211;52.234;9.860;2024-03-02T04:54:43;99727.91;;;6.29;85.10
84116;BME280;74211;52.234;9.860;2024-03-02T04:57:25;99722.81;;;6.21;85.23
84116;BME280;74211;52.234;9.860;2024-03-02T04:59:55;99733.91;;;6.15;85.64
84116;BME280;74211;52.234;9.860;2024-03-02T05:02:26;99727.75;;;6.16;85.46
84116;BME280;74211;52.234;9.860;2024-03-02T05:04:55;99731.75;;;6.18;86.21
84116;BME280;74211;52.234;9.860;2024-03-02T05:07:28;99726.41;;;6.20;86.44
84116;BME280;74211;52.234;9.860;2024-03-02T05:09:59;99732.38;;;6.20;86.57
84116;BME280;74211;52.234;9.860;2024-03-02T05:12:29;99731.84;;;6.25;86.62
84116;BME280;74211;52.234;9.860;2024-03-02T05:15:22;99731.03;;;6.24;86.44
84116;BME280;74211;52.234;9.860;2024-03-02T05:17:52;99723.81;;;6.20;86.35
84116;BME280;74211;52.234;9.860;2024-03-02T05:20:24;99714.44;;;6.19;86.45
84116;BME280;74211;52.234;9.860;2024-03-02T05:22:57;99716.41;;;6.17;86.57
84116;BME280;74211;52.234;9.860;2024-03-02T05:25:27;99715.16;;;6.13;86.59
84116;BME280;74211;52.234;9.860;2024-03-02T05:27:56;99718.38;;;6.15;86.27
84116;BME280;74211;52.234;9.860;2024-03-02T05:30:27;99718.56;;;6.13;86.31
84116;BME280;74211;52.234;9.860;2024-03-02T05:32:57;99705.19;;;6.10;86.41
84116;BME280;74211;52.234;9.860;2024-03-02T05:35:27;99710.13;;;6.05;86.43
84116;BME280;74211;52.234;9.860;2024-03-02T05:38:00;99703.09;;;6.20;86.82
84116;BME280;74211;52.234;9.860;2024-03-02T05:40:30;99704.63;;;6.36;86.54
84116;BME280;74211;52.234;9.860;2024-03-02T05:43:00;99708.56;;;6.32;85.86
84116;BME280;74211;52.234;9.860;2024-03-02T05:45:30;99697.41;;;6.31;86.25
84116;BME280;74211;52.234;9.860;2024-03-02T05:48:00;99680.88;;;6.32;85.99
84116;BME280;74211;52.234;9.860;2024-03-02T05:50:30;99706.56;;;6.48;85.94
84116;BME280;74211;52.234;9.860;2024-03-02T05:53:03;99719.63;;;6.62;85.52
84116;BME280;74211;52.234;9.860;2024-03-02T05:55:33;99723.66;;;6.71;84.97
84116;BME280;74211;52.234;9.860;2024-03-02T05:58:03;99729.72;;;6.78;84.66
84116;BME280;74211;52.234;9.860;2024-03-02T06:00:49;99728.47;;;6.74;84.64
84116;BME280;74211;52.234;9.860;2024-03-02T06:03:21;99730.53;;;6.78;84.25
84116;BME280;74211;52.234;9.860;2024-03-02T06:05:52;99713.47;;;6.63;84.27
84116;BME280;74211;52.234;9.860;2024-03-02T06:08:25;99737.56;;;6.84;84.16
84116;BME280;74211;52.234;9.860;2024-03-02T06:10:55;99739.72;;;6.81;84.04
84116;BME280;74211;52.234;9.860;2024-03-02T06:13:25;99736.75;;;6.84;84.06
84116;BME280;74211;52.234;9.860;2024-03-02T06:15:55;99742.94;;;6.83;84.08
84116;BME280;74211;52.234;9.860;2024-03-02T06:18:26;99747.69;;;6.79;84.07
84116;BME280;74211;52.234;9.860;2024-03-02T06:20:56;99733.06;;;6.72;84.39
84116;BME280;74211;52.234;9.860;2024-03-02T06:23:31;99734.84;;;6.71;84.38
84116;BME280;74211;52.234;9.860;2024-03-02T06:26:01;99746.00;;;6.72;84.65
84116;BME280;74211;52.234;9.860;2024-03-02T06:28:32;99748.38;;;6.67;84.72
84116;BME280;74211;52.234;9.860;2024-03-02T06:31:02;99747.75;;;6.65;85.03
84116;BME280;74211;52.234;9.860;2024-03-02T06:33:32;99763.78;;;6.75;84.77
84116;BME280;74211;52.234;9.860;2024-03-02T06:36:03;99761.81;;;6.77;84.19
84116;BME280;74211;52.234;9.860;2024-03-02T06:38:38;99766.44;;;6.81;84.09
84116;BME280;74211;52.234;9.860;2024-03-02T06:41:09;99764.84;;;6.80;84.37
84116;BME280;74211;52.234;9.860;2024-03-02T06:43:39;99769.22;;;6.80;84.47
84116;BME280;74211;52.234;9.860;2024-03-02T06:46:10;99762.91;;;6.89;84.56
84116;BME280;74211;52.234;9.860;2024-03-02T06:48:42;99770.81;;;7.02;84.08
84116;BME280;74211;52.234;9.860;2024-03-02T06:51:13;99771.50;;;7.17;83.19
84116;BME280;74211;52.234;9.860;2024-03-02T06:53:45;99767.16;;;7.24;83.47
84116;BME280;74211;52.234;9.860;2024-03-02T06:56:15;99770.38;;;7.26;83.33
84116;BME280;74211;52.234;9.860;2024-03-02T06:58:45;99767.44;;;7.36;83.51
84116;BME280;74211;52.234;9.860;2024-03-02T07:01:15;99758.69;;;7.44;83.37
84116;BME280;74211;52.234;9.860;2024-03-02T07:03:50;99764.78;;;7.64;82.57
84116;BME280;74211;52.234;9.860;2024-03-02T07:06:20;99771.41;;;7.67;82.59
84116;BME280;74211;52.234;9.860;2024-03-02T07:08:53;99770.22;;;7.69;82.56
84116;BME280;74211;52.234;9.860;2024-03-02T07:11:23;99775.41;;;7.69;82.15
84116;BME280;74211;52.234;9.860;2024-03-02T07:13:53;99780.66;;;7.82;82.07
84116;BME280;74211;52.234;9.860;2024-03-02T07:16:24;99780.06;;;7.80;82.24
84116;BME280;74211;52.234;9.860;2024-03-02T07:19:00;99783.91;;;7.91;81.96
84116;BME280;74211;52.234;9.860;2024-03-02T07:21:31;99787.09;;;7.86;81.67
84116;BME280;74211;52.234;9.860;2024-03-02T07:24:05;99786.31;;;7.92;81.98
84116;BME280;74211;52.234;9.860;2024-03-02T07:26:36;99784.34;;;7.94;81.82
84116;BME280;74211;52.234;9.860;2024-03-02T07:29:09;99791.94;;;8.03;81.83
84116;BME280;74211;52.234;9.860;2024-03-02T07:31:39;99798.34;;;8.07;81.59
84116;BME280;74211;52.234;9.860;2024-03-02T07:34:09;99786.97;;;8.08;81.97
84116;BME280;74211;52.234;9.860;2024-03-02T07:36:39;99786.78;;;8.09;81.59
84116;BME280;74211;52.234;9.860;2024-03-02T07:39:11;99803.81;;;8.25;81.60
84116;BME280;74211;52.234;9.860;2024-03-02T07:41:41;99801.09;;;8.33;80.56
84116;BME280;74211;52.234;9.860;2024-03-02T07:44:11;99806.72;;;8.50;80.13
84116;BME280;74211;52.234;9.860;2024-03-02T07:46:42;99812.53;;;8.58;79.76
84116;BME280;74211;52.234;9.860;2024-03-02T07:49:13;99813.97;;;8.67;79.98
84116;BME280;74211;52.234;9.860;2024-03-02T07:51:44;99808.56;;;8.76;79.26
84116;BME280;74211;52.234;9.860;2024-03-02T07:54:17;99816.38;;;8.82;78.67
84116;BME280;74211;52.234;9.860;2024-03-02T07:56:47;99820.38;;;8.85;78.83
84116;BME280;74211;52.234;9.860;2024-03-02T07:59:18;99813.38;;;8.79;79.52
84116;BME280;74211;52.234;9.860;2024-03-02T08:01:49;99821.78;;;8.87;78.58
84116;BME280;74211;52.234;9.860;2024-03-02T08:04:22;99829.81;;;8.99;78.54
84116;BME280;74211;52.234;9.860;2024-03-02T08:06:52;99819.41;;;8.99;78.42
84116;BME280;74211;52.234;9.860;2024-03-02T08:09:25;99821.22;;;9.05;77.68
84116;BME280;74211;52.234;9.860;2024-03-02T08:11:55;99823.81;;;9.18;77.67
84116;BME280;74211;52.234;9.860;2024-03-02T08:14:26;99822.81;;;9.19;77.25
84116;BME280;74211;52.234;9.860;2024-03-02T08:16:56;99819.00;;;9.35;76.41
84116;BME280;74211;52.234;9.860;2024-03-02T08:19:28;99821.38;;;9.50;75.16
84116;BME280;74211;52.234;9.860;2024-03-02T08:21:58;99822.56;;;9.54;75.71
84116;BME280;74211;52.234;9.860;2024-03-02T08:24:32;99814.53;;;9.68;75.33
84116;BME280;74211;52.234;9.860;2024-03-02T08:27:03;99814.94;;;9.72;74.93
84116;BME280;74211;52.234;9.860;2024-03-02T08:29:33;99816.72;;;9.78;74.08
84116;BME280;74211;52.234;9.860;2024-03-02T08:32:03;99821.88;;;9.91;72.46
84116;BME280;74211;52.234;9.860;2024-03-02T08:34:45;99817.63;;;10.03;72.74
84116;BME280;74211;52.234;9.860;2024-03-02T08:37:15;99827.84;;;10.12;72.69
84116;BME280;74211;52.234;9.860;2024-03-02T08:39:45;99819.19;;;10.18;72.20
84116;BME280;74211;52.234;9.860;2024-03-02T08:42:15;99825.78;;;10.33;71.54
84116;BME280;74211;52.234;9.860;2024-03-02T08:44:45;99821.53;;;10.39;71.11
84116;BME280;74211;52.234;9.860;2024-03-02T08:47:15;99829.72;;;10.43;71.82
84116;BME280;74211;52.234;9.860;2024-03-02T08:49:47;99829.50;;;10.51;70.40
84116;BME280;74211;52.234;9.860;2024-03-02T08:52:17;99839.00;;;10.70;71.02
84116;BME280;74211;52.234;9.860;2024-03-02T08:54:47;99840.88;;;10.94;71.12
84116;BME280;74211;52.234;9.860;2024-03-02T08:57:17;99841.66;;;10.95;69.17
84116;BME280;74211;52.234;9.860;2024-03-02T08:59:47;99838.91;;;10.90;69.16
84116;BME280;74211;52.234;9.860;2024-03-02T09:02:17;99839.63;;;10.97;68.91
84116;BME280;74211;52.234;9.860;2024-03-02T09:04:51;99831.84;;;11.15;70.24
84116;BME280;74211;52.234;9.860;2024-03-02T09:07:23;99836.13;;;11.09;68.72
84116;BME280;74211;52.234;9.860;2024-03-02T09:09:53;99838.44;;;11.24;68.18
84116;BME280;74211;52.234;9.860;2024-03-02T09:12:23;99831.81;;;11.47;69.23
84116;BME280;74211;52.234;9.860;2024-03-02T09:14:53;99846.94;;;11.38;67.82
84116;BME280;74211;52.234;9.860;2024-03-02T09:17:23;99843.09;;;11.40;67.69
84116;BME280;74211;52.234;9.860;2024-03-02T09:19:55;99838.59;;;11.29;67.61
84116;BME280;74211;52.234;9.860;2024-03-02T09:22:25;99844.00;;;11.53;68.15
84116;BME280;74211;52.234;9.860;2024-03-02T09:24:55;99845.91;;;11.64;66.48
84116;BME280;74211;52.234;9.860;2024-03-02T09:27:25;99847.19;;;11.55;66.31
84116;BME280;74211;52.234;9.860;2024-03-02T09:29:55;99852.66;;;11.71;65.14
84116;BME280;74211;52.234;9.860;2024-03-02T09:32:25;99845.31;;;11.62;64.16
84116;BME280;74211;52.234;9.860;2024-03-02T09:34:58;99822.00;;;11.42;64.27
84116;BME280;74211;52.234;9.860;2024-03-02T09:37:28;99839.78;;;11.52;63.95
84116;BME280;74211;52.234;9.860;2024-03-02T09:39:58;99839.94;;;11.57;65.64
84116;BME280;74211;52.234;9.860;2024-03-02T09:42:29;99847.78;;;11.57;65.19
84116;BME280;74211;52.234;9.860;2024-03-02T09:44:59;99850.63;;;11.73;65.51
84116;BME280;74211;52.234;9.860;2024-03-02T09:47:29;99851.63;;;11.79;63.56
84116;BME280;74211;52.234;9.860;2024-03-02T09:50:02;99854.69;;;11.69;64.68
84116;BME280;74211;52.234;9.860;2024-03-02T09:52:33;99863.09;;;11.78;63.40
84116;BME280;74211;52.234;9.860;2024-03-02T09:55:03;99859.66;;;11.53;64.88
84116;BME280;74211;52.234;9.860;2024-03-02T09:57:34;99865.84;;;11.83;64.87
84116;BME280;74211;52.234;9.860;2024-03-02T10:00:08;99867.16;;;11.92;63.53
84116;BME280;74211;52.234;9.860;2024-03-02T10:02:42;99854.19;;;11.86;63.97
84116;BME280;74211;52.234;9.860;2024-03-02T10:05:23;99862.56;;;11.88;63.44
84116;BME280;74211;52.234;9.860;2024-03-02T10:08:03;99856.69;;;11.92;63.54
84116;BME280;74211;52.234;9.860;2024-03-02T10:10:37;99859.75;;;11.89;64.02
84116;BME280;74211;52.234;9.860;2024-03-02T10:13:09;99866.28;;;12.17;63.59
84116;BME280;74211;52.234;9.860;2024-03-02T10:15:40;99861.13;;;12.10;62.08
84116;BME280;74211;52.234;9.860;2024-03-02T10:18:11;99865.88;;;12.20;62.63
84116;BME280;74211;52.234;9.860;2024-03-02T10:20:45;99867.09;;;11.99;62.98
84116;BME280;74211;52.234;9.860;2024-03-02T10:23:16;99873.50;;;12.03;63.40
84116;BME280;74211;52.234;9.860;2024-03-02T10:25:47;99854.97;;;12.04;63.70
84116;BME280;74211;52.234;9.860;2024-03-02T10:28:24;99866.06;;;12.36;62.91
84116;BME280;74211;52.234;9.860;2024-03-02T10:30:55;99867.00;;;12.42;62.47
84116;BME280;74211;52.234;9.860;2024-03-02T10:33:25;99875.28;;;12.69;60.73
84116;BME280;74211;52.234;9.860;2024-03-02T10:35:58;99866.13;;;12.78;61.20
84116;BME280;74211;52.234;9.860;2024-03-02T10:38:28;99870.66;;;12.82;61.39
84116;BME280;74211;52.234;9.860;2024-03-02T10:40:58;99870.28;;;12.97;59.24
84116;BME280;74211;52.234;9.860;2024-03-02T10:43:30;99862.16;;;13.17;59.17
84116;BME280;74211;52.234;9.860;2024-03-02T10:46:01;99866.03;;;13.26;58.51
84116;BME280;74211;52.234;9.860;2024-03-02T10:48:31;99862.28;;;13.34;58.66
84116;BME280;74211;52.234;9.860;2024-03-02T10:51:05;99862.75;;;13.42;56.22
84116;BME280;74211;52.234;9.860;2024-03-02T10:53:35;99861.00;;;13.36;57.85
84116;BME280;74211;52.234;9.860;2024-03-02T10:56:07;99866.41;;;13.65;56.54
84116;BME280;74211;52.234;9.860;2024-03-02T10:58:39;99858.19;;;13.61;57.34
84116;BME280;74211;52.234;9.860;2024-03-02T11:01:10;99868.78;;;13.78;55.32
84116;BME280;74211;52.234;9.860;2024-03-02T11:03:42;99868.78;;;13.55;55.24
84116;BME280;74211;52.234;9.860;2024-03-02T11:06:15;99869.56;;;13.55;56.19
84116;BME280;74211;52.234;9.860;2024-03-02T11:08:46;99866.72;;;13.80;56.27
84116;BME280;74211;52.234;9.860;2024-03-02T11:11:22;99867.06;;;13.83;57.77
84116;BME280;74211;52.234;9.860;2024-03-02T11:13:56;99871.03;;;14.09;56.65
84116;BME280;74211;52.234;9.860;2024-03-02T11:16:32;99867.28;;;14.34;53.84
84116;BME280;74211;52.234;9.860;2024-03-02T11:19:04;99865.78;;;14.49;54.30
84116;BME280;74211;52.234;9.860;2024-03-02T11:21:41;99868.91;;;14.46;54.01
84116;BME280;74211;52.234;9.860;2024-03-02T11:24:31;99870.44;;;14.59;54.24
84116;BME280;74211;52.234;9.860;2024-03-02T11:27:06;99863.59;;;14.58;55.12
84116;BME280;74211;52.234;9.860;2024-03-02T11:29:42;99862.94;;;14.51;54.56
84116;BME280;74211;52.234;9.860;2024-03-02T11:32:14;99865.22;;;14.76;54.51
84116;BME280;74211;52.234;9.860;2024-03-02T11:34:46;99859.50;;;14.50;53.45
84116;BME280;74211;52.234;9.860;2024-03-02T11:37:19;99862.00;;;14.57;54.16
84116;BME280;74211;52.234;9.860;2024-03-02T11:39:51;99860.28;;;14.63;53.68
84116;BME280;74211;52.234;9.860;2024-03-02T11:42:21;99861.91;;;14.52;53.11
84116;BME280;74211;52.234;9.860;2024-03-02T11:44:51;99861.25;;;14.45;54.46
84116;BME280;74211;52.234;9.860;2024-03-02T11:47:21;99866.97;;;14.42;53.79
84116;BME280;74211;52.234;9.860;2024-03-02T11:49:51;99860.38;;;14.16;55.37
84116;BME280;74211;52.234;9.860;2024-03-02T11:52:26;99855.41;;;14.03;55.90
84116;BME280;74211;52.234;9.860;2024-03-02T11:54:58;99859.97;;;13.96;55.49
84116;BME280;74211;52.234;9.860;2024-03-02T11:57:28;99856.66;;;14.00;55.49
84116;BME280;74211;52.234;9.860;2024-03-02T11:59:58;99847.97;;;14.11;56.56
84116;BME280;74211;52.234;9.860;2024-03-02T12:02:31;99838.59;;;14.15;54.39
84116;BME280;74211;52.234;9.860;2024-03-02T12:05:03;99846.78;;;14.31;54.36
84116;BME280;74211;52.234;9.860;2024-03-02T12:07:36;99844.88;;;14.26;54.00
84116;BME280;74211;52.234;9.860;2024-03-02T12:10:08;99843.72;;;14.62;53.14
84116;BME280;74211;52.234;9.860;2024-03-02T12:12:38;99843.22;;;14.94;54.67
84116;BME280;74211;52.234;9.860;2024-03-02T12:15:08;99831.75;;;15.16;51.54
84116;BME280;74211;52.234;9.860;2024-03-02T12:17:38;99839.47;;;15.23;52.25
84116;BME280;74211;52.234;9.860;2024-03-02T12:20:11;99833.75;;;14.93;51.01
84116;BME280;74211;52.234;9.860;2024-03-02T12:22:45;99823.16;;;15.38;51.35
84116;BME280;74211;52.234;9.860;2024-03-02T12:25:15;99830.63;;;15.63;50.82
84116;BME280;74211;52.234;9.860;2024-03-02T12:27:45;99824.16;;;15.70;50.33
84116;BME280;74211;52.234;9.860;2024-03-02T12:30:16;99826.50;;;15.88;49.62
84116;BME280;74211;52.234;9.860;2024-03-02T12:32:47;99825.69;;;16.32;51.27
84116;BME280;74211;52.234;9.860;2024-03-02T12:35:18;99828.16;;;16.65;48.34
84116;BME280;74211;52.234;9.860;2024-03-02T12:37:52;99815.19;;;17.22;47.09
84116;BME280;74211;52.234;9.860;2024-03-02T12:40:23;99822.19;;;17.44;47.22
84116;BME280;74211;52.234;9.860;2024-03-02T12:42:53;99814.38;;;17.59;46.43
84116;BME280;74211;52.234;9.860;2024-03-02T12:45:23;99814.81;;;17.93;44.27
84116;BME280;74211;52.234;9.860;2024-03-02T12:47:54;99812.03;;;17.62;43.31
84116;BME280;74211;52.234;9.860;2024-03-02T12:50:24;99810.88;;;17.48;44.17
84116;BME280;74211;52.234;9.860;2024-03-02T12:52:57;99820.22;;;16.38;46.75
84116;BME280;74211;52.234;9.860;2024-03-02T12:55:27;99798.69;;;16.68;47.41
84116;BME280;74211;52.234;9.860;2024-03-02T12:57:58;99817.13;;;17.37;46.36
84116;BME280;74211;52.234;9.860;2024-03-02T13:00:30;99799.06;;;18.13;43.68
84116;BME280;74211;52.234;9.860;2024-03-02T13:03:02;99800.50;;;17.84;42.73
84116;BME280;74211;52.234;9.860;2024-03-02T13:05:32;99806.50;;;18.42;42.84
84116;BME280;74211;52.234;9.860;2024-03-02T13:08:05;99803.09;;;18.51;43.51
84116;BME280;74211;52.234;9.860;2024-03-02T13:10:37;99806.56;;;18.62;41.75
84116;BME280;74211;52.234;9.860;2024-03-02T13:13:08;99800.19;;;18.58;40.15
84116;BME280;74211;52.234;9.860;2024-03-02T13:15:38;99802.34;;;18.66;40.84
84116;BME280;74211;52.234;9.860;2024-03-02T13:18:09;99791.63;;;18.05;43.93
84116;BME280;74211;52.234;9.860;2024-03-02T13:20:40;99803.59;;;18.43;42.16
84116;BME280;74211;52.234;9.860;2024-03-02T13:23:13;99799.19;;;18.69;41.20
84116;BME280;74211;52.234;9.860;2024-03-02T13:25:43;99799.66;;;18.51;40.21
84116;BME280;74211;52.234;9.860;2024-03-02T13:28:14;99790.72;;;18.67;39.96
84116;BME280;74211;52.234;9.860;2024-03-02T13:30:44;99774.78;;;18.16;41.93